createdAt,value
2017-10-18T00:00:05.993Z,99.71
2017-10-18T00:01:59.000Z,99.80
2017-10-18T00:02:59.039Z,99.99
2017-10-18T00:04:52.028Z,99.99
2017-10-18T00:05:52.087Z,99.99
2017-10-18T00:07:45.097Z,99.99
2017-10-18T00:08:45.134Z,99.99
2017-10-18T00:10:38.123Z,99.99
2017-10-18T00:11:38.180Z,99.99
2017-10-18T00:13:31.191Z,99.99
2017-10-18T00:14:31.230Z,99.99
2017-10-18T00:16:24.241Z,99.99
2017-10-18T00:17:24.279Z,99.99
2017-10-18T00:19:17.268Z,99.99
2017-10-18T00:20:17.324Z,99.99
2017-10-18T00:22:10.358Z,99.99
2017-10-18T00:23:10.369Z,99.99
2017-10-18T00:25:03.359Z,99.99
2017-10-18T00:26:03.419Z,99.99
2017-10-18T00:27:56.425Z,99.99
2017-10-18T00:28:56.468Z,99.99
2017-10-18T00:30:49.449Z,99.99
2017-10-18T00:31:49.511Z,99.99
2017-10-18T00:33:42.517Z,99.99
2017-10-18T00:34:42.556Z,99.99
2017-10-18T00:36:35.567Z,99.99
2017-10-18T00:37:35.617Z,99.99
2017-10-18T00:39:28.598Z,99.99
2017-10-18T00:40:28.656Z,99.99
2017-10-18T00:42:21.663Z,99.99
2017-10-18T00:43:21.702Z,99.99
2017-10-18T00:45:14.692Z,99.99
2017-10-18T00:46:14.752Z,99.99
2017-10-18T00:48:07.763Z,99.99
2017-10-18T00:49:07.811Z,99.99
2017-10-18T00:51:00.804Z,99.99
2017-10-18T00:52:00.865Z,99.99
2017-10-18T00:53:53.873Z,99.99
2017-10-18T00:54:53.915Z,99.99
2017-10-18T00:56:46.921Z,99.99
2017-10-18T00:57:46.961Z,99.99
2017-10-18T00:59:39.945Z,99.99
2017-10-18T01:00:40.006Z,99.99
2017-10-18T01:02:33.012Z,99.99
2017-10-18T01:03:33.052Z,99.99
2017-10-18T01:05:26.041Z,99.99
2017-10-18T01:06:26.098Z,99.99
2017-10-18T01:08:19.104Z,99.99
2017-10-18T01:09:19.144Z,99.99
2017-10-18T01:11:12.130Z,99.99
2017-10-18T01:12:12.191Z,99.99
2017-10-18T01:14:05.199Z,99.99
2017-10-18T01:15:05.238Z,99.99
2017-10-18T01:16:58.247Z,99.99
2017-10-18T01:17:58.286Z,99.99
2017-10-18T01:19:51.276Z,99.99
2017-10-18T01:20:51.333Z,99.99
2017-10-18T01:22:44.339Z,99.99
2017-10-18T01:23:44.379Z,99.99
2017-10-18T01:25:37.362Z,99.99
2017-10-18T01:26:37.423Z,99.99
2017-10-18T01:28:30.432Z,99.99
2017-10-18T01:29:30.470Z,99.99
2017-10-18T01:31:23.457Z,99.99
2017-10-18T01:32:23.517Z,99.99
2017-10-18T01:34:16.524Z,99.99
2017-10-18T01:35:16.567Z,99.99
2017-10-18T01:37:09.570Z,99.18
2017-10-18T01:38:09.609Z,99.76
2017-10-18T01:40:02.604Z,99.57
2017-10-18T01:41:02.662Z,99.57
2017-10-18T01:42:55.671Z,99.57
2017-10-18T01:43:55.711Z,99.85
2017-10-18T01:45:48.701Z,99.18
2017-10-18T01:46:48.757Z,98.99
2017-10-18T01:48:41.764Z,99.08
2017-10-18T01:49:41.804Z,99.08
2017-10-18T01:51:34.793Z,98.90
2017-10-18T01:52:34.853Z,99.08
2017-10-18T01:54:27.859Z,99.08
2017-10-18T01:55:27.899Z,99.08
2017-10-18T01:57:20.915Z,98.90
2017-10-18T01:58:20.945Z,98.71
2017-10-18T02:00:13.936Z,98.61
2017-10-18T02:01:13.993Z,98.52
2017-10-18T02:03:06.999Z,98.71
2017-10-18T02:04:07.038Z,98.71
2017-10-18T02:06:00.027Z,99.37
2017-10-18T02:07:00.087Z,98.61
2017-10-18T02:08:53.094Z,98.71
2017-10-18T02:09:53.135Z,98.32
2017-10-18T02:11:46.130Z,98.61
2017-10-18T02:12:46.187Z,98.71
2017-10-18T02:14:39.198Z,98.71
2017-10-18T02:15:39.434Z,98.80
2017-10-18T02:17:32.244Z,98.42
2017-10-18T02:18:32.287Z,98.52
2017-10-18T02:20:25.273Z,98.52
2017-10-18T02:21:25.331Z,98.57
2017-10-18T02:23:18.340Z,98.66
2017-10-18T02:24:18.379Z,98.42
2017-10-18T02:26:11.366Z,97.80
2017-10-18T02:27:11.425Z,98.08
2017-10-18T02:29:04.431Z,97.85
2017-10-18T02:30:04.472Z,98.61
2017-10-18T02:31:57.460Z,98.75
2017-10-18T02:32:57.519Z,97.94
2017-10-18T02:34:50.525Z,98.18
2017-10-18T02:35:50.572Z,98.57
2017-10-18T02:37:43.574Z,98.08
2017-10-18T02:38:43.611Z,98.18
2017-10-18T02:40:36.601Z,98.28
2017-10-18T02:41:36.660Z,98.08
2017-10-18T02:43:29.672Z,98.18
2017-10-18T02:44:29.709Z,98.08
2017-10-18T02:46:22.699Z,97.99
2017-10-18T02:47:22.756Z,98.08
2017-10-18T02:49:15.762Z,98.08
2017-10-18T02:50:15.803Z,98.08
2017-10-18T02:52:08.792Z,98.37
2017-10-18T02:53:08.851Z,98.18
2017-10-18T02:55:01.862Z,98.08
2017-10-18T02:56:01.901Z,98.18
2017-10-18T02:57:54.914Z,98.23
2017-10-18T02:58:54.949Z,98.23
2017-10-18T03:00:47.939Z,98.03
2017-10-18T03:01:47.997Z,98.28
2017-10-18T03:03:41.003Z,98.18
2017-10-18T03:04:41.044Z,97.94
2017-10-18T03:06:34.033Z,98.23
2017-10-18T03:07:34.092Z,98.03
2017-10-18T03:09:27.098Z,98.13
2017-10-18T03:10:27.138Z,98.23
2017-10-18T03:12:20.127Z,98.61
2017-10-18T03:13:20.184Z,98.42
2017-10-18T03:15:13.700Z,98.32
2017-10-18T03:16:13.739Z,98.90
2017-10-18T03:18:06.745Z,98.42
2017-10-18T03:19:06.784Z,98.52
2017-10-18T03:20:59.772Z,98.99
2017-10-18T03:21:59.833Z,98.80
2017-10-18T03:23:52.839Z,99.08
2017-10-18T03:24:52.881Z,99.08
2017-10-18T03:26:45.871Z,99.08
2017-10-18T03:27:45.929Z,99.47
2017-10-18T03:29:38.935Z,99.08
2017-10-18T03:30:38.976Z,98.90
2017-10-18T03:32:31.958Z,99.18
2017-10-18T03:33:32.020Z,99.23
2017-10-18T03:35:25.029Z,99.47
2017-10-18T03:36:25.068Z,99.47
2017-10-18T03:38:18.076Z,99.37
2017-10-18T03:39:18.115Z,99.08
2017-10-18T03:41:11.106Z,99.18
2017-10-18T03:42:11.164Z,99.08
2017-10-18T03:44:04.679Z,98.99
2017-10-18T03:45:04.719Z,98.90
2017-10-18T03:46:57.707Z,98.90
2017-10-18T03:47:57.767Z,98.90
2017-10-18T03:49:50.773Z,98.90
2017-10-18T03:50:50.815Z,98.61
2017-10-18T03:52:43.803Z,98.71
2017-10-18T03:53:43.870Z,98.61
2017-10-18T03:55:36.867Z,98.52
2017-10-18T03:56:36.907Z,98.71
2017-10-18T03:58:29.917Z,98.80
2017-10-18T03:59:29.957Z,98.80
2017-10-18T04:01:22.945Z,98.99
2017-10-18T04:02:23.002Z,99.18
2017-10-18T04:04:16.010Z,99.08
2017-10-18T04:05:16.050Z,98.71
2017-10-18T04:07:09.039Z,99.08
2017-10-18T04:08:09.097Z,99.08
2017-10-18T04:10:02.111Z,98.71
2017-10-18T04:11:02.152Z,98.80
2017-10-18T04:12:55.140Z,98.61
2017-10-18T04:13:55.199Z,98.61
2017-10-18T04:15:48.206Z,98.61
2017-10-18T04:16:48.246Z,98.99
2017-10-18T04:18:41.253Z,98.61
2017-10-18T04:19:41.293Z,98.99
2017-10-18T04:21:34.281Z,98.99
2017-10-18T04:22:34.340Z,98.71
2017-10-18T04:24:27.348Z,98.61
2017-10-18T04:25:27.388Z,98.52
2017-10-18T04:27:20.377Z,98.61
2017-10-18T04:28:20.435Z,98.99
2017-10-18T04:30:13.441Z,98.71
2017-10-18T04:31:13.482Z,98.71
2017-10-18T04:33:06.470Z,98.61
2017-10-18T04:34:06.528Z,98.52
2017-10-18T04:35:59.537Z,98.61
2017-10-18T04:36:59.577Z,98.90
2017-10-18T04:38:52.582Z,98.99
2017-10-18T04:39:52.627Z,98.71
2017-10-18T04:41:45.617Z,98.80
2017-10-18T04:42:45.678Z,99.28
2017-10-18T04:44:38.687Z,98.99
2017-10-18T04:45:38.728Z,99.18
2017-10-18T04:47:31.712Z,98.61
2017-10-18T04:48:31.776Z,98.99
2017-10-18T04:50:24.781Z,99.37
2017-10-18T04:51:24.821Z,98.90
2017-10-18T04:53:17.811Z,99.28
2017-10-18T04:54:17.868Z,99.18
2017-10-18T04:56:10.878Z,99.08
2017-10-18T04:57:10.921Z,99.28
2017-10-18T04:59:03.993Z,99.28
2017-10-18T05:00:04.034Z,99.18
2017-10-18T05:01:57.037Z,98.94
2017-10-18T05:02:57.099Z,99.18
2017-10-18T05:05:01.732Z,98.99
2017-10-18T05:06:01.773Z,99.28
2017-10-18T05:07:54.761Z,99.47
2017-10-18T05:08:54.823Z,99.37
2017-10-18T05:10:47.829Z,99.37
2017-10-18T05:11:47.869Z,99.47
2017-10-18T05:13:40.858Z,99.28
2017-10-18T05:14:40.915Z,99.18
2017-10-18T05:16:33.920Z,99.08
2017-10-18T05:17:33.960Z,99.28
2017-10-18T05:19:26.969Z,99.18
2017-10-18T05:20:27.010Z,99.28
2017-10-18T05:22:20.071Z,99.18
2017-10-18T05:23:20.135Z,99.28
2017-10-18T05:25:13.141Z,99.37
2017-10-18T05:26:13.183Z,99.18
2017-10-18T05:28:06.171Z,99.04
2017-10-18T05:29:06.232Z,99.37
2017-10-18T05:30:59.240Z,99.28
2017-10-18T05:31:59.280Z,99.28
2017-10-18T05:33:52.269Z,99.08
2017-10-18T05:34:52.328Z,99.28
2017-10-18T05:36:45.338Z,99.28
2017-10-18T05:37:45.376Z,99.08
2017-10-18T05:39:38.385Z,99.08
2017-10-18T05:40:38.425Z,99.08
2017-10-18T05:42:32.430Z,99.08
2017-10-18T05:43:32.493Z,99.18
2017-10-18T05:45:25.499Z,98.99
2017-10-18T05:46:25.540Z,99.18
2017-10-18T05:48:18.529Z,99.08
2017-10-18T05:49:18.592Z,99.28
2017-10-18T05:51:11.595Z,99.08
2017-10-18T05:52:11.635Z,99.37
2017-10-18T05:54:04.625Z,99.37
2017-10-18T05:55:04.685Z,98.80
2017-10-18T05:56:57.694Z,98.71
2017-10-18T05:57:57.734Z,99.37
2017-10-18T05:59:50.747Z,98.99
2017-10-18T06:00:50.787Z,99.08
2017-10-18T06:02:43.776Z,99.08
2017-10-18T06:03:43.834Z,99.18
2017-10-18T06:05:37.353Z,99.47
2017-10-18T06:06:37.391Z,99.37
2017-10-18T06:08:30.379Z,99.18
2017-10-18T06:09:30.442Z,99.37
2017-10-18T06:11:23.445Z,99.37
2017-10-18T06:12:23.485Z,98.90
2017-10-18T06:14:16.473Z,99.28
2017-10-18T06:15:16.535Z,98.99
2017-10-18T06:17:09.540Z,99.18
2017-10-18T06:18:09.582Z,99.37
2017-10-18T06:20:02.592Z,98.71
2017-10-18T06:21:02.631Z,98.99
2017-10-18T06:22:55.620Z,99.37
2017-10-18T06:23:55.682Z,99.08
2017-10-18T06:25:48.702Z,99.08
2017-10-18T06:26:48.727Z,99.37
2017-10-18T06:28:41.715Z,99.18
2017-10-18T06:29:41.777Z,99.28
2017-10-18T06:31:34.785Z,99.08
2017-10-18T06:32:34.823Z,99.08
2017-10-18T06:34:27.813Z,99.95
2017-10-18T06:35:27.874Z,99.99
2017-10-18T06:37:20.881Z,99.95
2017-10-18T06:38:20.922Z,99.95
2017-10-18T06:40:13.932Z,99.76
2017-10-18T06:41:13.975Z,99.85
2017-10-18T06:43:06.961Z,99.28
2017-10-18T06:44:07.022Z,99.18
2017-10-18T06:46:00.029Z,99.33
2017-10-18T06:47:00.073Z,99.71
2017-10-18T06:48:53.055Z,99.14
2017-10-18T06:49:53.130Z,99.62
2017-10-18T06:51:46.122Z,99.90
2017-10-18T06:52:46.162Z,99.99
2017-10-18T06:54:39.153Z,99.99
2017-10-18T06:55:39.217Z,99.99
2017-10-18T06:57:32.225Z,99.99
2017-10-18T06:58:32.262Z,99.99
2017-10-18T07:00:25.280Z,99.99
2017-10-18T07:01:25.310Z,99.99
2017-10-18T07:03:18.299Z,99.99
2017-10-18T07:04:18.356Z,99.99
2017-10-18T07:06:11.365Z,99.99
2017-10-18T07:07:11.409Z,99.99
2017-10-18T07:09:04.393Z,99.99
2017-10-18T07:10:04.465Z,99.99
2017-10-18T07:11:57.463Z,99.99
2017-10-18T07:12:57.501Z,99.99
2017-10-18T07:14:50.493Z,99.99
2017-10-18T07:15:50.556Z,99.99
2017-10-18T07:17:43.573Z,99.99
2017-10-18T07:18:43.609Z,99.99
2017-10-18T07:20:36.623Z,99.99
2017-10-18T07:21:36.690Z,99.99
2017-10-18T07:23:29.652Z,99.99
2017-10-18T07:24:29.717Z,99.99
2017-10-18T07:26:22.722Z,99.99
2017-10-18T07:27:22.759Z,99.99
2017-10-18T07:29:15.749Z,99.99
2017-10-18T07:30:15.806Z,99.99
2017-10-18T07:32:08.834Z,99.99
2017-10-18T07:33:08.863Z,99.99
2017-10-18T07:35:01.852Z,99.99
2017-10-18T07:36:01.910Z,99.99
2017-10-18T07:37:54.920Z,99.99
2017-10-18T07:38:54.959Z,99.99
2017-10-18T07:40:47.967Z,99.99
2017-10-18T07:41:48.008Z,99.99
2017-10-18T07:43:40.999Z,99.99
2017-10-18T07:44:41.056Z,99.99
2017-10-18T07:46:34.068Z,99.99
2017-10-18T07:47:34.107Z,99.99
2017-10-18T07:49:27.097Z,99.99
2017-10-18T07:50:27.158Z,99.99
2017-10-18T07:52:20.173Z,99.99
2017-10-18T07:53:20.208Z,99.99
2017-10-18T07:55:13.198Z,99.99
2017-10-18T07:56:13.257Z,99.99
2017-10-18T07:58:06.265Z,99.99
2017-10-18T07:59:06.303Z,99.99
2017-10-18T08:00:59.312Z,99.99
2017-10-18T08:01:59.353Z,99.85
2017-10-18T08:03:52.343Z,99.71
2017-10-18T08:04:52.401Z,99.90
2017-10-18T08:06:45.410Z,99.43
2017-10-18T08:07:45.450Z,99.33
2017-10-18T08:09:38.440Z,99.14
2017-10-18T08:10:38.539Z,99.52
2017-10-18T08:12:31.507Z,99.71
2017-10-18T08:13:31.551Z,99.71
2017-10-18T08:15:24.546Z,99.04
2017-10-18T08:16:24.608Z,98.85
2017-10-18T08:18:17.623Z,99.14
2017-10-18T08:19:17.659Z,99.14
2017-10-18T08:21:10.666Z,99.71
2017-10-18T08:22:10.709Z,99.14
2017-10-18T08:24:03.699Z,98.95
2017-10-18T08:25:03.757Z,98.38
2017-10-18T08:26:56.767Z,98.75
2017-10-18T08:27:56.809Z,98.66
2017-10-18T08:29:49.796Z,98.66
2017-10-18T08:30:49.858Z,98.66
2017-10-18T08:32:42.867Z,98.57
2017-10-18T08:33:42.908Z,98.66
2017-10-18T08:35:35.898Z,98.66
2017-10-18T08:36:35.957Z,98.66
2017-10-18T08:38:28.968Z,98.57
2017-10-18T08:39:29.008Z,98.81
2017-10-18T08:41:22.021Z,98.24
2017-10-18T08:42:22.064Z,98.71
2017-10-18T08:44:15.054Z,98.61
2017-10-18T08:45:15.115Z,98.43
2017-10-18T08:47:08.127Z,97.95
2017-10-18T08:48:08.169Z,98.14
2017-10-18T08:50:01.160Z,98.04
2017-10-18T08:51:01.222Z,98.33
2017-10-18T08:52:54.230Z,98.14
2017-10-18T08:53:54.270Z,97.95
2017-10-18T08:55:47.261Z,98.04
2017-10-18T08:56:47.323Z,98.24
2017-10-18T08:58:40.370Z,98.24
2017-10-18T08:59:40.373Z,98.24
2017-10-18T09:01:33.388Z,97.90
2017-10-18T09:02:33.431Z,98.33
2017-10-18T09:04:26.422Z,97.75
2017-10-18T09:05:26.482Z,97.66
2017-10-18T09:07:19.493Z,98.33
2017-10-18T09:08:19.539Z,98.04
2017-10-18T09:10:12.528Z,98.14
2017-10-18T09:11:12.587Z,97.66
2017-10-18T09:13:05.596Z,98.24
2017-10-18T09:14:05.637Z,97.95
2017-10-18T09:15:58.629Z,97.52
2017-10-18T09:16:58.689Z,97.66
2017-10-18T09:18:51.699Z,97.80
2017-10-18T09:19:51.741Z,97.80
2017-10-18T09:21:44.751Z,97.71
2017-10-18T09:22:44.795Z,97.13
2017-10-18T09:24:37.785Z,97.18
2017-10-18T09:25:37.846Z,97.09
2017-10-18T09:27:30.861Z,96.22
2017-10-18T09:28:30.900Z,96.32
2017-10-18T09:30:23.890Z,96.42
2017-10-18T09:31:23.952Z,96.42
2017-10-18T09:33:16.962Z,95.94
2017-10-18T09:34:17.003Z,96.03
2017-10-18T09:36:09.995Z,95.98
2017-10-18T09:37:10.064Z,96.22
2017-10-18T09:39:03.067Z,95.36
2017-10-18T09:40:03.108Z,95.94
2017-10-18T09:41:56.122Z,95.89
2017-10-18T09:42:56.168Z,95.75
2017-10-18T09:44:49.157Z,94.79
2017-10-18T09:45:49.223Z,95.65
2017-10-18T09:47:42.229Z,95.27
2017-10-18T09:48:42.287Z,95.03
2017-10-18T09:50:35.264Z,95.22
2017-10-18T09:51:35.326Z,95.03
2017-10-18T09:53:28.337Z,95.17
2017-10-18T09:54:28.380Z,95.27
2017-10-18T09:56:21.371Z,95.27
2017-10-18T09:57:21.697Z,94.84
2017-10-18T09:59:14.442Z,94.98
2017-10-18T10:00:14.486Z,94.54
2017-10-18T10:02:07.500Z,92.72
2017-10-18T10:03:07.540Z,94.26
2017-10-18T10:05:01.041Z,93.11
2017-10-18T10:06:01.103Z,93.40
2017-10-18T10:07:54.118Z,94.07
2017-10-18T10:08:54.161Z,94.17
2017-10-18T10:10:47.153Z,93.44
2017-10-18T10:11:47.214Z,93.73
2017-10-18T10:13:40.264Z,94.07
2017-10-18T10:14:40.270Z,94.02
2017-10-18T10:16:33.266Z,94.55
2017-10-18T10:17:33.342Z,94.84
2017-10-18T10:19:26.342Z,94.45
2017-10-18T10:20:26.388Z,95.98
2017-10-18T10:22:19.400Z,94.64
2017-10-18T10:23:19.441Z,94.74
2017-10-18T10:25:12.432Z,94.40
2017-10-18T10:26:12.494Z,94.50
2017-10-18T10:28:05.504Z,94.89
2017-10-18T10:29:05.546Z,94.98
2017-10-18T10:30:58.541Z,95.56
2017-10-18T10:31:58.599Z,93.83
2017-10-18T10:33:51.609Z,93.93
2017-10-18T10:34:51.651Z,94.17
2017-10-18T10:36:44.643Z,94.84
2017-10-18T10:37:44.705Z,94.17
2017-10-18T10:39:37.719Z,93.49
2017-10-18T10:40:37.761Z,93.68
2017-10-18T10:42:30.770Z,93.01
2017-10-18T10:43:30.815Z,93.40
2017-10-18T10:45:23.806Z,94.17
2017-10-18T10:46:23.868Z,92.91
2017-10-18T10:48:16.880Z,92.72
2017-10-18T10:49:16.922Z,92.54
2017-10-18T10:51:09.914Z,92.86
2017-10-18T10:52:09.991Z,91.48
2017-10-18T10:54:03.489Z,91.86
2017-10-18T10:55:03.531Z,91.62
2017-10-18T10:56:56.527Z,92.58
2017-10-18T10:57:56.583Z,91.91
2017-10-18T10:59:49.593Z,91.81
2017-10-18T11:00:49.653Z,92.39
2017-10-18T11:02:42.646Z,91.42
2017-10-18T11:03:42.688Z,91.62
2017-10-18T11:05:36.189Z,91.38
2017-10-18T11:06:36.248Z,92.33
2017-10-18T11:08:29.263Z,89.84
2017-10-18T11:09:29.302Z,90.22
2017-10-18T11:11:22.293Z,90.22
2017-10-18T11:12:22.354Z,89.50
2017-10-18T11:14:15.366Z,90.75
2017-10-18T11:15:15.408Z,89.94
2017-10-18T11:17:08.399Z,91.19
2017-10-18T11:18:08.461Z,91.04
2017-10-18T11:20:01.471Z,90.37
2017-10-18T11:21:01.517Z,90.27
2017-10-18T11:22:54.524Z,89.69
2017-10-18T11:23:54.567Z,89.69
2017-10-18T11:25:47.558Z,88.16
2017-10-18T11:26:47.622Z,88.93
2017-10-18T11:28:40.633Z,89.31
2017-10-18T11:29:40.676Z,89.02
2017-10-18T11:31:33.675Z,89.12
2017-10-18T11:32:33.737Z,88.64
2017-10-18T11:34:26.752Z,89.69
2017-10-18T11:35:26.807Z,88.20
2017-10-18T11:37:19.785Z,89.83
2017-10-18T11:38:19.846Z,88.01
2017-10-18T11:40:12.865Z,89.07
2017-10-18T11:41:12.909Z,88.68
2017-10-18T11:43:05.923Z,87.34
2017-10-18T11:44:05.974Z,86.28
2017-10-18T11:45:58.960Z,86.28
2017-10-18T11:46:59.035Z,86.66
2017-10-18T11:48:52.041Z,86.76
2017-10-18T11:49:52.085Z,86.52
2017-10-18T11:51:45.077Z,87.24
2017-10-18T11:52:45.140Z,87.38
2017-10-18T11:54:38.151Z,87.86
2017-10-18T11:55:38.194Z,87.43
2017-10-18T11:57:31.186Z,88.10
2017-10-18T11:58:31.252Z,88.24
2017-10-18T12:00:24.263Z,87.29
2017-10-18T12:01:24.305Z,87.29
2017-10-18T12:03:17.321Z,86.85
2017-10-18T12:04:17.367Z,87.53
2017-10-18T12:06:11.866Z,88.01
2017-10-18T12:07:11.935Z,88.01
2017-10-18T12:09:04.943Z,88.63
2017-10-18T12:10:05.027Z,87.76
2017-10-18T12:11:57.980Z,86.61
2017-10-18T12:12:58.043Z,86.42
2017-10-18T12:14:51.053Z,86.22
2017-10-18T12:15:51.097Z,85.94
2017-10-18T12:17:44.091Z,86.42
2017-10-18T12:18:44.155Z,85.84
2017-10-18T12:20:37.170Z,86.13
2017-10-18T12:21:37.213Z,85.94
2017-10-18T12:23:30.227Z,85.89
2017-10-18T12:24:30.271Z,86.52
2017-10-18T12:26:23.267Z,87.96
2017-10-18T12:27:23.326Z,86.71
2017-10-18T12:29:16.344Z,87.67
2017-10-18T12:30:16.387Z,86.80
2017-10-18T12:32:09.381Z,87.76
2017-10-18T12:33:09.448Z,86.71
2017-10-18T12:35:02.458Z,86.13
2017-10-18T12:36:02.506Z,86.04
2017-10-18T12:37:55.496Z,86.99
2017-10-18T12:38:55.558Z,87.76
2017-10-18T12:40:48.569Z,86.61
2017-10-18T12:41:48.613Z,87.48
2017-10-18T12:43:41.628Z,86.71
2017-10-18T12:44:41.671Z,87.48
2017-10-18T12:46:34.665Z,86.04
2017-10-18T12:47:34.728Z,86.04
2017-10-18T12:49:27.744Z,86.22
2017-10-18T12:50:27.788Z,87.19
2017-10-18T12:52:20.782Z,85.84
2017-10-18T12:53:20.846Z,85.65
2017-10-18T12:55:13.861Z,85.65
2017-10-18T12:56:13.907Z,85.94
2017-10-18T12:58:06.898Z,85.21
2017-10-18T12:59:06.963Z,85.60
2017-10-18T13:00:59.973Z,84.63
2017-10-18T13:02:00.019Z,84.73
2017-10-18T13:03:53.032Z,84.44
2017-10-18T13:04:53.078Z,85.21
2017-10-18T13:06:46.070Z,83.86
2017-10-18T13:07:46.131Z,85.40
2017-10-18T13:09:39.145Z,85.21
2017-10-18T13:10:39.188Z,86.18
2017-10-18T13:12:32.181Z,85.02
2017-10-18T13:13:32.244Z,84.44
2017-10-18T13:15:25.261Z,84.63
2017-10-18T13:16:25.304Z,84.16
2017-10-18T13:18:18.297Z,85.02
2017-10-18T13:19:18.360Z,83.39
2017-10-18T13:21:11.372Z,84.25
2017-10-18T13:22:11.415Z,83.67
2017-10-18T13:24:04.432Z,84.21
2017-10-18T13:25:04.476Z,83.58
2017-10-18T13:26:57.470Z,84.30
2017-10-18T13:27:57.532Z,85.21
2017-10-18T13:29:50.547Z,85.31
2017-10-18T13:30:50.588Z,84.83
2017-10-18T13:32:43.583Z,83.67
2017-10-18T13:33:43.663Z,83.67
2017-10-18T13:35:36.659Z,84.63
2017-10-18T13:36:36.705Z,84.25
2017-10-18T13:38:29.699Z,83.77
2017-10-18T13:39:29.765Z,84.16
2017-10-18T13:41:22.777Z,84.25
2017-10-18T13:42:22.822Z,84.25
2017-10-18T13:44:15.850Z,83.96
2017-10-18T13:45:15.892Z,83.67
2017-10-18T13:47:08.886Z,84.63
2017-10-18T13:48:08.950Z,84.44
2017-10-18T13:50:01.962Z,85.50
2017-10-18T13:51:02.007Z,84.44
2017-10-18T13:52:54.998Z,84.06
2017-10-18T13:55:34.471Z,84.50
2017-10-18T13:56:34.511Z,84.69
2017-10-18T13:58:27.513Z,85.98
2017-10-18T13:59:27.578Z,86.08
2017-10-18T14:01:20.592Z,85.46
2017-10-18T14:02:20.635Z,85.31
2017-10-18T14:04:13.648Z,85.21
2017-10-18T14:05:13.744Z,85.21
2017-10-18T14:07:06.685Z,84.63
2017-10-18T14:08:06.746Z,84.50
2017-10-18T14:09:59.762Z,85.17
2017-10-18T14:10:59.806Z,85.17
2017-10-18T14:12:52.820Z,85.17
2017-10-18T14:13:52.885Z,85.65
2017-10-18T14:15:45.929Z,86.80
2017-10-18T14:16:45.942Z,85.94
2017-10-18T14:18:38.934Z,86.04
2017-10-18T14:19:39.003Z,85.94
2017-10-18T14:21:32.013Z,86.04
2017-10-18T14:22:32.057Z,86.13
2017-10-18T14:24:25.073Z,86.32
2017-10-18T14:25:25.118Z,86.13
2017-10-18T14:27:18.112Z,86.13
2017-10-18T14:28:18.177Z,86.04
2017-10-18T14:30:11.191Z,85.94
2017-10-18T14:31:11.236Z,86.04
2017-10-18T14:33:04.228Z,85.46
2017-10-18T14:34:04.292Z,84.98
2017-10-18T14:35:57.310Z,85.17
2017-10-18T14:36:57.354Z,85.27
2017-10-18T14:38:50.347Z,85.75
2017-10-18T14:39:50.415Z,86.13
2017-10-18T14:41:43.426Z,86.80
2017-10-18T14:42:43.473Z,86.90
2017-10-18T14:44:36.487Z,86.99
2017-10-18T14:45:36.534Z,86.99
2017-10-18T14:47:29.521Z,86.61
2017-10-18T14:48:29.585Z,88.06
2017-10-18T14:50:22.598Z,87.09
2017-10-18T14:51:22.642Z,87.29
2017-10-18T14:53:15.635Z,86.71
2017-10-18T14:54:15.700Z,86.61
2017-10-18T14:56:08.712Z,87.24
2017-10-18T14:57:08.758Z,87.24
2017-10-18T14:59:01.749Z,87.24
2017-10-18T15:00:01.812Z,87.76
2017-10-18T15:01:54.826Z,87.09
2017-10-18T15:02:54.871Z,86.66
2017-10-18T17:24:32.207Z,94.41
2017-10-18T17:25:32.244Z,94.60
2017-10-18T17:27:25.255Z,94.21
2017-10-18T17:28:25.297Z,94.41
2017-10-18T17:30:18.286Z,94.50
2017-10-18T17:31:18.349Z,94.70
2017-10-18T17:33:11.362Z,94.89
2017-10-18T17:34:11.403Z,94.98
2017-10-18T17:36:04.396Z,95.07
2017-10-18T17:37:04.459Z,94.98
2017-10-18T17:38:57.471Z,94.89
2017-10-18T17:39:57.509Z,94.98
2017-10-18T17:41:50.556Z,95.07
2017-10-18T17:42:50.563Z,94.98
2017-10-18T17:44:43.559Z,94.70
2017-10-18T17:45:43.614Z,94.79
2017-10-18T17:47:36.626Z,94.41
2017-10-18T17:48:36.672Z,94.79
2017-10-18T17:50:29.680Z,94.55
2017-10-18T17:51:29.746Z,94.65
2017-10-18T17:53:22.755Z,95.22
2017-10-18T17:54:22.804Z,94.84
2017-10-18T17:56:15.789Z,94.93
2017-10-18T17:57:15.852Z,95.03
2017-10-18T17:59:08.869Z,94.84
2017-10-18T18:00:08.909Z,94.98
2017-10-18T18:02:01.919Z,95.32
2017-10-18T18:03:01.964Z,94.55
2017-10-18T18:04:54.953Z,94.65
2017-10-18T18:05:55.017Z,94.46
2017-10-18T18:07:48.031Z,95.12
2017-10-18T18:08:48.080Z,95.12
2017-10-18T18:10:41.088Z,95.12
2017-10-18T18:11:41.125Z,94.93
2017-10-18T18:13:34.135Z,94.93
2017-10-18T18:14:34.178Z,94.93
2017-10-18T18:16:27.170Z,95.41
2017-10-18T18:17:27.229Z,95.03
2017-10-18T18:19:20.278Z,94.65
2017-10-18T18:20:20.280Z,95.32
2017-10-18T18:22:13.289Z,94.93
2017-10-18T18:23:13.330Z,95.12
2017-10-18T18:25:06.321Z,95.03
2017-10-18T18:26:06.382Z,94.93
2017-10-18T18:27:59.390Z,94.84
2017-10-18T18:28:59.433Z,94.55
2017-10-18T18:30:52.430Z,94.84
2017-10-18T18:31:52.496Z,94.70
2017-10-18T18:33:45.521Z,94.84
2017-10-18T18:34:45.553Z,94.84
2017-10-18T18:36:38.540Z,94.93
2017-10-18T18:37:38.603Z,94.70
2017-10-18T18:39:31.618Z,94.89
2017-10-18T18:40:31.655Z,94.98
2017-10-18T18:42:24.670Z,95.07
2017-10-18T18:43:24.714Z,94.89
2017-10-18T18:45:17.702Z,95.07
2017-10-18T18:46:17.763Z,94.98
2017-10-18T18:48:10.776Z,94.70
2017-10-18T18:49:10.814Z,95.65
2017-10-18T18:51:03.808Z,95.36
2017-10-18T18:52:03.867Z,95.17
2017-10-18T18:53:56.882Z,95.07
2017-10-18T18:54:56.917Z,95.46
2017-10-18T18:56:49.907Z,95.36
2017-10-18T18:57:49.975Z,95.46
2017-10-18T18:59:42.994Z,94.70
2017-10-18T19:00:43.038Z,95.07
2017-10-18T19:02:36.045Z,94.74
2017-10-18T19:03:36.087Z,94.89
2017-10-18T19:05:29.085Z,95.32
2017-10-18T19:06:29.137Z,95.32
2017-10-18T19:08:22.151Z,95.03
2017-10-18T19:09:22.193Z,95.32
2017-10-18T19:11:15.179Z,95.12
2017-10-18T19:12:15.246Z,95.41
2017-10-18T19:14:08.253Z,95.61
2017-10-18T19:15:08.292Z,94.84
2017-10-18T19:17:01.283Z,94.74
2017-10-18T19:18:01.345Z,94.84
2017-10-18T19:19:54.354Z,94.74
2017-10-18T19:20:54.397Z,94.84
2017-10-18T19:22:47.404Z,95.41
2017-10-18T19:23:47.451Z,95.22
2017-10-18T19:25:40.451Z,95.32
2017-10-18T19:26:40.494Z,95.61
2017-10-18T19:28:33.502Z,94.84
2017-10-18T19:29:33.543Z,94.65
2017-10-18T19:31:26.533Z,94.65
2017-10-18T19:32:26.592Z,94.74
2017-10-18T19:34:19.599Z,95.03
2017-10-18T19:35:19.641Z,95.32
2017-10-18T19:37:12.631Z,94.93
2017-10-18T19:38:12.690Z,95.03
2017-10-18T19:40:05.725Z,95.32
2017-10-18T19:41:05.741Z,95.41
2017-10-18T19:42:58.732Z,94.74
2017-10-18T19:43:58.796Z,94.84
2017-10-18T19:45:51.809Z,94.74
2017-10-18T19:46:51.856Z,95.51
2017-10-18T19:48:45.018Z,94.74
2017-10-18T19:49:44.905Z,94.93
2017-10-18T19:51:37.895Z,95.56
2017-10-18T19:52:37.955Z,95.27
2017-10-18T19:54:31.472Z,95.27
2017-10-18T19:55:31.516Z,95.27
2017-10-18T19:57:24.500Z,95.36
2017-10-18T19:58:24.561Z,95.27
2017-10-18T20:00:17.580Z,95.17
2017-10-18T20:01:17.610Z,95.08
2017-10-18T20:03:10.602Z,95.17
2017-10-18T20:04:10.660Z,95.36
2017-10-18T20:06:03.666Z,95.36
2017-10-18T20:07:03.709Z,95.27
2017-10-18T20:08:56.699Z,95.65
2017-10-18T20:09:56.756Z,94.79
2017-10-18T20:11:49.767Z,95.36
2017-10-18T20:12:49.808Z,95.27
2017-10-18T20:14:42.797Z,95.08
2017-10-18T20:15:42.857Z,95.56
2017-10-18T20:17:35.865Z,95.08
2017-10-18T20:18:35.905Z,95.17
2017-10-18T20:20:28.931Z,94.51
2017-10-18T20:21:28.981Z,95.56
2017-10-18T20:23:21.962Z,94.60
2017-10-18T20:24:22.021Z,95.36
2017-10-18T20:26:15.028Z,95.27
2017-10-18T20:27:15.068Z,95.56
2017-10-18T20:29:08.057Z,95.27
2017-10-18T20:30:08.118Z,95.27
2017-10-18T20:32:01.131Z,95.08
2017-10-18T20:33:01.173Z,95.46
2017-10-18T20:34:54.164Z,95.56
2017-10-18T20:35:54.222Z,95.46
2017-10-18T20:37:47.234Z,95.17
2017-10-18T20:38:47.273Z,95.17
2017-10-18T20:40:40.282Z,95.36
2017-10-18T20:41:40.322Z,95.56
2017-10-18T20:43:33.311Z,95.22
2017-10-18T20:44:33.374Z,95.51
2017-10-18T20:46:26.379Z,95.03
2017-10-18T20:47:26.426Z,95.03
2017-10-18T20:49:19.411Z,95.41
2017-10-18T20:50:19.468Z,95.22
2017-10-18T20:52:12.476Z,95.61
2017-10-18T20:53:12.517Z,95.51
2017-10-18T20:55:06.016Z,95.22